Time;durP1;ratioP1;P1;durP2;ratioP2;P2;SDS_P1;SDS_P2;PMS_P1;PMS_P2;Temp;Humidity;BMP_temperature;BMP_pressure;BME280_temperature;BME280_humidity;BME280_pressure;Samples;Min_cycle;Max_cycle;Signal;HPM_P1;HPM_P2
2022/08/31 00:04:00;;;;;;;6.55;3.50;;;;;;;;;;4918488;29;20039;-79
2022/08/31 00:06:26;;;;;;;5.65;3.72;;;;;;;;;;4900961;29;20020;-85
2022/08/31 00:08:53;;;;;;;6.90;3.60;;;;;;;;;;4901008;29;20043;-80
2022/08/31 00:11:26;;;;;;;6.78;3.85;;;;;;;;;;4900985;29;20027;-85
2022/08/31 00:13:53;;;;;;;5.97;3.65;;;;;;;;;;4900911;29;20118;-81
2022/08/31 00:16:19;;;;;;;6.32;3.60;;;;;;;;;;4900903;29;20494;-85
2022/08/31 00:18:46;;;;;;;6.45;3.97;;;;;;;;;;4917862;29;20040;-79
2022/08/31 00:21:12;;;;;;;6.22;3.90;;;;;;;;;;4901255;29;20025;-84
2022/08/31 00:23:38;;;;;;;6.85;3.72;;;;;;;;;;4900855;29;20051;-79
2022/08/31 00:26:04;;;;;;;5.38;3.70;;;;;;;;;;4900956;29;20076;-80
2022/08/31 00:28:31;;;;;;;6.65;3.47;;;;;;;;;;4918397;29;20086;-79
2022/08/31 00:30:57;;;;;;;8.75;4.00;;;;;;;;;;4900424;29;20056;-79
2022/08/31 00:33:23;;;;;;;9.05;3.80;;;;;;;;;;4917519;29;20029;-79
2022/08/31 00:35:49;;;;;;;5.80;3.42;;;;;;;;;;4901046;29;20029;-74
2022/08/31 00:38:16;;;;;;;5.85;3.40;;;;;;;;;;4919307;29;20064;-80
2022/08/31 00:40:43;;;;;;;7.38;3.90;;;;;;;;;;4900842;29;20063;-80
2022/08/31 00:43:09;;;;;;;6.88;3.35;;;;;;;;;;4900358;29;20466;-79
2022/08/31 00:45:36;;;;;;;5.68;3.97;;;;;;;;;;4917277;29;20031;-82
2022/08/31 00:48:02;;;;;;;5.90;3.88;;;;;;;;;;4900837;29;20036;-86
2022/08/31 00:50:28;;;;;;;6.85;4.25;;;;;;;;;;4900293;29;20366;-79
2022/08/31 00:52:59;;;;;;;5.97;3.63;;;;;;;;;;4900618;29;20401;-80
2022/08/31 00:55:31;;;;;;;8.20;3.58;;;;;;;;;;4900576;29;20029;-80
2022/08/31 00:57:59;;;;;;;9.52;4.25;;;;;;;;;;4917948;29;20111;-79
2022/08/31 01:00:27;;;;;;;10.23;3.88;;;;;;;;;;4900653;29;20103;-79
2022/08/31 01:02:53;;;;;;;9.23;4.03;;;;;;;;;;4901038;29;20031;-85
2022/08/31 01:05:20;;;;;;;8.27;3.75;;;;;;;;;;4920664;29;20465;-81
2022/08/31 01:07:47;;;;;;;8.50;4.00;;;;;;;;;;4921825;29;20389;-80
2022/08/31 01:10:14;;;;;;;6.15;3.85;;;;;;;;;;4904052;29;20036;-79
2022/08/31 01:12:41;;;;;;;9.45;4.10;;;;;;;;;;4903870;29;20038;-78
2022/08/31 01:15:08;;;;;;;7.63;4.20;;;;;;;;;;4903941;29;20029;-85
2022/08/31 01:17:35;;;;;;;9.00;4.28;;;;;;;;;;4905410;29;20080;-81
2022/08/31 01:20:10;;;;;;;8.23;4.05;;;;;;;;;;4921941;29;20055;-80
2022/08/31 01:22:41;;;;;;;7.60;4.35;;;;;;;;;;4903834;29;20028;-81
2022/08/31 01:25:08;;;;;;;9.65;3.88;;;;;;;;;;4903812;29;20035;-80
2022/08/31 01:27:35;;;;;;;9.07;4.50;;;;;;;;;;4921434;29;20058;-84
2022/08/31 01:30:04;;;;;;;6.65;4.05;;;;;;;;;;4903984;29;20086;-80
2022/08/31 01:32:31;;;;;;;7.78;4.10;;;;;;;;;;4903633;29;20032;-83
2022/08/31 01:34:57;;;;;;;6.03;4.00;;;;;;;;;;4904599;29;20036;-79
2022/08/31 01:37:23;;;;;;;6.20;3.58;;;;;;;;;;4903518;29;20031;-81
2022/08/31 01:39:49;;;;;;;6.20;4.20;;;;;;;;;;4920584;29;20068;-79
2022/08/31 01:42:16;;;;;;;8.25;3.83;;;;;;;;;;4903931;29;20035;-79
2022/08/31 01:44:42;;;;;;;9.80;4.63;;;;;;;;;;4903202;29;20039;-80
2022/08/31 01:47:08;;;;;;;6.97;4.47;;;;;;;;;;4903395;29;20546;-80
2022/08/31 01:49:34;;;;;;;6.68;4.35;;;;;;;;;;4903758;29;20047;-83
2022/08/31 01:52:01;;;;;;;5.97;3.40;;;;;;;;;;4902934;29;20035;-79
2022/08/31 01:54:27;;;;;;;7.97;4.45;;;;;;;;;;4919815;29;20028;-79
2022/08/31 01:56:53;;;;;;;6.63;3.63;;;;;;;;;;4903662;29;20048;-85
2022/08/31 01:59:21;;;;;;;8.13;4.45;;;;;;;;;;4903735;29;20032;-79
2022/08/31 02:01:49;;;;;;;6.40;3.70;;;;;;;;;;4903562;29;20035;-79
2022/08/31 02:04:16;;;;;;;7.03;4.53;;;;;;;;;;4903514;29;20032;-80
2022/08/31 02:06:44;;;;;;;7.47;3.65;;;;;;;;;;4919846;29;20036;-80
2022/08/31 02:09:10;;;;;;;7.88;4.55;;;;;;;;;;4920510;29;20044;-79
2022/08/31 02:11:36;;;;;;;7.88;4.45;;;;;;;;;;4920607;29;20035;-82
2022/08/31 02:14:03;;;;;;;6.15;4.28;;;;;;;;;;4902599;29;20028;-80
2022/08/31 02:16:29;;;;;;;6.38;4.07;;;;;;;;;;4919534;29;20111;-79
2022/08/31 02:18:55;;;;;;;6.15;4.05;;;;;;;;;;4919634;29;20349;-79
2022/08/31 02:21:22;;;;;;;6.70;4.43;;;;;;;;;;4902828;29;20172;-79
2022/08/31 02:23:48;;;;;;;6.22;3.92;;;;;;;;;;4902301;29;20079;-80
2022/08/31 02:26:14;;;;;;;8.57;4.32;;;;;;;;;;4919685;29;20028;-80
2022/08/31 02:28:41;;;;;;;5.88;3.58;;;;;;;;;;4902300;29;20446;-79
2022/08/31 02:31:07;;;;;;;6.88;4.45;;;;;;;;;;4902610;29;20072;-80
2022/08/31 02:33:33;;;;;;;7.03;4.80;;;;;;;;;;4902827;29;20074;-80
2022/08/31 02:35:59;;;;;;;7.25;3.67;;;;;;;;;;4902791;29;20032;-79
2022/08/31 02:38:26;;;;;;;8.93;3.40;;;;;;;;;;4919222;29;20070;-79
2022/08/31 02:40:52;;;;;;;5.97;4.55;;;;;;;;;;4919400;29;20070;-79
2022/08/31 02:43:19;;;;;;;6.15;3.97;;;;;;;;;;4902138;29;20497;-79
2022/08/31 02:45:45;;;;;;;9.50;4.82;;;;;;;;;;4902592;29;20028;-80
2022/08/31 02:48:11;;;;;;;10.30;3.72;;;;;;;;;;4901811;29;20044;-79
2022/08/31 02:50:42;;;;;;;8.48;4.40;;;;;;;;;;4919291;29;20051;-77
2022/08/31 02:53:18;;;;;;;9.00;4.20;;;;;;;;;;4918735;29;20070;-81
2022/08/31 02:55:45;;;;;;;6.22;4.45;;;;;;;;;;4902594;29;20482;-83
2022/08/31 02:58:16;;;;;;;7.65;4.25;;;;;;;;;;4919671;29;20028;-81
2022/08/31 03:00:45;;;;;;;6.57;4.07;;;;;;;;;;4920059;29;20107;-79
2022/08/31 03:03:11;;;;;;;4.93;3.20;;;;;;;;;;4902025;29;20028;-84
2022/08/31 03:05:37;;;;;;;6.00;3.67;;;;;;;;;;4902001;29;20032;-83
2022/08/31 03:08:03;;;;;;;8.35;4.32;;;;;;;;;;4919539;29;20084;-85
2022/08/31 03:10:33;;;;;;;7.65;4.35;;;;;;;;;;4901659;29;20043;-79
2022/08/31 03:12:59;;;;;;;6.88;3.40;;;;;;;;;;4918720;29;20031;-80
2022/08/31 03:15:26;;;;;;;5.93;3.55;;;;;;;;;;4901310;29;20379;-80
2022/08/31 03:17:53;;;;;;;6.85;3.90;;;;;;;;;;4919833;29;20024;-79
2022/08/31 03:20:20;;;;;;;6.22;3.60;;;;;;;;;;4901715;29;20032;-81
2022/08/31 03:22:46;;;;;;;7.68;3.53;;;;;;;;;;4901402;29;20039;-81
2022/08/31 03:25:12;;;;;;;8.82;4.28;;;;;;;;;;4901483;29;20154;-80
2022/08/31 03:27:39;;;;;;;8.48;3.47;;;;;;;;;;4900948;29;20048;-80
2022/08/31 03:30:07;;;;;;;8.20;4.40;;;;;;;;;;4900863;29;20067;-80
2022/08/31 03:32:33;;;;;;;7.45;4.65;;;;;;;;;;4901842;29;20035;-80
2022/08/31 03:35:00;;;;;;;7.30;4.68;;;;;;;;;;4901400;29;20028;-80
2022/08/31 03:37:26;;;;;;;5.20;3.50;;;;;;;;;;4902038;29;20482;-84
2022/08/31 03:39:52;;;;;;;7.05;4.70;;;;;;;;;;4901430;29;20083;-80
2022/08/31 03:42:19;;;;;;;7.50;4.70;;;;;;;;;;4919019;29;20061;-85
2022/08/31 03:44:46;;;;;;;7.00;3.92;;;;;;;;;;4901457;29;20401;-80
2022/08/31 03:47:12;;;;;;;5.22;3.25;;;;;;;;;;4918181;29;20035;-84
2022/08/31 03:49:38;;;;;;;8.77;4.93;;;;;;;;;;4901650;29;20043;-81
2022/08/31 03:52:04;;;;;;;6.57;4.28;;;;;;;;;;4901509;29;20051;-82
2022/08/31 03:54:30;;;;;;;6.53;3.72;;;;;;;;;;4901310;29;20115;-80
2022/08/31 03:56:57;;;;;;;9.05;4.10;;;;;;;;;;4918346;29;20024;-85
2022/08/31 03:59:23;;;;;;;8.07;4.57;;;;;;;;;;4901145;29;20020;-80
2022/08/31 04:01:49;;;;;;;5.75;3.75;;;;;;;;;;4900822;29;20039;-80
2022/08/31 04:04:15;;;;;;;8.80;4.40;;;;;;;;;;4901146;29;20108;-85
2022/08/31 04:06:43;;;;;;;6.88;4.07;;;;;;;;;;4901078;29;20031;-80
2022/08/31 04:09:09;;;;;;;9.18;4.35;;;;;;;;;;4900989;29;20498;-80
2022/08/31 04:11:39;;;;;;;7.93;4.35;;;;;;;;;;4900868;29;20127;-80
2022/08/31 04:14:05;;;;;;;7.13;4.45;;;;;;;;;;4901234;29;20367;-80
2022/08/31 04:16:31;;;;;;;14.65;5.10;;;;;;;;;;4901273;29;20020;-80
2022/08/31 04:18:58;;;;;;;14.73;4.70;;;;;;;;;;4900662;29;20040;-81
2022/08/31 04:21:26;;;;;;;8.30;3.92;;;;;;;;;;4900754;29;20032;-82
2022/08/31 04:23:53;;;;;;;9.75;4.88;;;;;;;;;;4900937;29;20064;-80
2022/08/31 04:26:21;;;;;;;7.45;4.90;;;;;;;;;;4900811;29;20467;-80
2022/08/31 04:28:47;;;;;;;8.25;4.60;;;;;;;;;;4899982;29;20036;-80
2022/08/31 04:31:13;;;;;;;7.35;4.50;;;;;;;;;;4918311;29;20036;-80
2022/08/31 04:33:40;;;;;;;7.93;4.25;;;;;;;;;;4900645;29;20048;-81
2022/08/31 04:36:11;;;;;;;8.52;5.55;;;;;;;;;;4904574;29;20036;-80
2022/08/31 04:38:37;;;;;;;8.63;4.68;;;;;;;;;;4918209;29;20088;-85
2022/08/31 04:41:11;;;;;;;8.50;5.00;;;;;;;;;;4905555;29;20494;-80
2022/08/31 04:43:42;;;;;;;6.45;4.28;;;;;;;;;;4904176;29;20035;-80
2022/08/31 04:46:08;;;;;;;7.03;4.30;;;;;;;;;;4904642;29;20039;-83
2022/08/31 04:48:35;;;;;;;7.15;4.45;;;;;;;;;;4905265;29;20083;-80
2022/08/31 04:51:02;;;;;;;7.93;4.88;;;;;;;;;;4921648;29;20028;-81
2022/08/31 04:53:29;;;;;;;9.80;4.78;;;;;;;;;;4921393;29;20032;-84
2022/08/31 04:55:55;;;;;;;7.22;4.38;;;;;;;;;;4904134;29;20032;-82
2022/08/31 04:58:22;;;;;;;7.32;4.75;;;;;;;;;;4921226;29;20381;-80
2022/08/31 05:00:49;;;;;;;9.20;4.93;;;;;;;;;;4904232;29;20051;-81
2022/08/31 05:03:16;;;;;;;6.28;4.07;;;;;;;;;;4903863;29;20028;-84
2022/08/31 05:05:45;;;;;;;7.22;4.30;;;;;;;;;;4903594;29;20036;-80
2022/08/31 05:08:11;;;;;;;6.68;4.15;;;;;;;;;;4903833;29;20501;-80
2022/08/31 05:10:40;;;;;;;6.50;4.20;;;;;;;;;;4903855;29;20032;-80
2022/08/31 05:13:06;;;;;;;6.40;3.92;;;;;;;;;;4904054;29;20087;-84
2022/08/31 05:15:32;;;;;;;6.65;3.95;;;;;;;;;;4904398;29;20047;-80
2022/08/31 05:17:59;;;;;;;7.25;4.38;;;;;;;;;;4903828;29;20028;-81
2022/08/31 05:20:25;;;;;;;5.30;3.72;;;;;;;;;;4920989;29;20020;-80
2022/08/31 05:22:52;;;;;;;7.65;3.88;;;;;;;;;;4903974;29;20067;-80
2022/08/31 05:25:18;;;;;;;5.63;3.63;;;;;;;;;;4903679;29;20035;-80
2022/08/31 05:27:44;;;;;;;5.80;3.53;;;;;;;;;;4903886;29;20059;-81
2022/08/31 05:30:11;;;;;;;8.07;4.00;;;;;;;;;;4903080;29;20517;-79
2022/08/31 05:32:37;;;;;;;6.40;3.88;;;;;;;;;;4903640;29;20028;-80
2022/08/31 05:35:03;;;;;;;5.80;3.55;;;;;;;;;;4902981;29;20545;-81
2022/08/31 05:37:30;;;;;;;5.32;3.30;;;;;;;;;;4903054;29;20032;-81
2022/08/31 05:39:56;;;;;;;8.02;3.63;;;;;;;;;;4903630;29;20536;-85
2022/08/31 05:42:22;;;;;;;7.75;3.72;;;;;;;;;;4903264;29;20028;-80
2022/08/31 05:44:48;;;;;;;6.63;3.10;;;;;;;;;;4920334;29;20549;-80
2022/08/31 05:47:14;;;;;;;6.22;3.03;;;;;;;;;;4903414;29;20063;-80
2022/08/31 05:49:42;;;;;;;5.68;2.95;;;;;;;;;;4920214;29;20040;-81
2022/08/31 05:52:08;;;;;;;4.47;2.70;;;;;;;;;;4902646;29;20389;-81
2022/08/31 05:54:35;;;;;;;8.40;2.63;;;;;;;;;;4903430;29;20028;-81
2022/08/31 05:57:02;;;;;;;4.10;2.40;;;;;;;;;;4910394;29;20119;-82
2022/08/31 05:59:34;;;;;;;3.92;2.40;;;;;;;;;;4930478;29;20103;-80
2022/08/31 06:02:00;;;;;;;2.92;2.03;;;;;;;;;;4909422;29;20043;-79
2022/08/31 06:04:27;;;;;;;3.80;1.90;;;;;;;;;;4902874;29;20071;-77
2022/08/31 06:06:53;;;;;;;9.98;2.42;;;;;;;;;;4902263;29;20119;-74
2022/08/31 06:09:20;;;;;;;5.63;1.98;;;;;;;;;;4902634;29;20036;-79
2022/08/31 06:11:46;;;;;;;3.00;1.77;;;;;;;;;;4902525;29;20055;-77
2022/08/31 06:14:13;;;;;;;3.40;1.92;;;;;;;;;;4919730;29;20028;-75
2022/08/31 06:16:42;;;;;;;2.45;1.55;;;;;;;;;;4902458;29;20024;-76
2022/08/31 06:19:08;;;;;;;3.58;1.63;;;;;;;;;;4902419;29;20032;-83
2022/08/31 06:21:38;;;;;;;3.00;1.50;;;;;;;;;;4902444;29;20035;-75
2022/08/31 06:24:04;;;;;;;3.00;1.55;;;;;;;;;;4902334;29;20096;-73
2022/08/31 06:26:32;;;;;;;8.23;1.50;;;;;;;;;;4902565;29;20488;-77
2022/08/31 06:29:00;;;;;;;3.17;1.60;;;;;;;;;;4902603;29;20043;-76
2022/08/31 06:31:29;;;;;;;4.43;1.80;;;;;;;;;;4902804;29;20097;-76
2022/08/31 06:33:56;;;;;;;6.45;1.70;;;;;;;;;;4902087;29;20028;-75
2022/08/31 06:36:24;;;;;;;2.65;1.45;;;;;;;;;;4919389;29;20052;-79
2022/08/31 06:38:51;;;;;;;4.82;2.47;;;;;;;;;;4919348;29;20086;-74
2022/08/31 06:41:18;;;;;;;5.13;1.90;;;;;;;;;;4902128;29;20028;-75
2022/08/31 06:43:45;;;;;;;3.17;1.67;;;;;;;;;;4905712;29;20161;-78
2022/08/31 06:46:12;;;;;;;2.47;1.40;;;;;;;;;;4902377;29;20039;-75
2022/08/31 06:48:39;;;;;;;2.63;1.50;;;;;;;;;;4901971;29;20043;-73
2022/08/31 06:51:06;;;;;;;2.83;1.80;;;;;;;;;;4920041;29;20107;-75
2022/08/31 06:53:33;;;;;;;4.18;1.40;;;;;;;;;;4903255;29;20028;-75
2022/08/31 06:56:03;;;;;;;2.72;1.38;;;;;;;;;;4904158;29;20024;-74
2022/08/31 06:58:30;;;;;;;3.58;1.63;;;;;;;;;;4919027;29;20055;-76
2022/08/31 07:00:57;;;;;;;3.42;1.63;;;;;;;;;;4901652;29;20020;-78
2022/08/31 07:03:31;;;;;;;5.10;1.80;;;;;;;;;;4901563;29;20036;-76
2022/08/31 07:05:58;;;;;;;6.45;1.83;;;;;;;;;;4901505;29;20058;-76
2022/08/31 07:08:24;;;;;;;3.28;1.75;;;;;;;;;;4918679;29;20043;-78
2022/08/31 07:10:51;;;;;;;8.52;1.63;;;;;;;;;;4901999;29;20036;-81
2022/08/31 07:13:17;;;;;;;2.83;1.45;;;;;;;;;;4901334;29;20371;-82
2022/08/31 07:15:43;;;;;;;4.88;1.60;;;;;;;;;;4904690;29;20032;-86
2022/08/31 07:18:09;;;;;;;3.20;1.50;;;;;;;;;;4902355;29;20024;-83
2022/08/31 07:20:35;;;;;;;5.57;1.75;;;;;;;;;;4903465;29;20103;-82
2022/08/31 07:23:01;;;;;;;2.10;1.30;;;;;;;;;;4905187;29;20024;-92
2022/08/31 07:25:27;;;;;;;3.55;1.70;;;;;;;;;;4902406;29;20039;-84
2022/08/31 07:27:54;;;;;;;3.67;1.80;;;;;;;;;;4918331;29;20032;-81
2022/08/31 07:30:21;;;;;;;4.72;1.98;;;;;;;;;;4902275;29;20048;-80
2022/08/31 07:32:49;;;;;;;4.55;1.40;;;;;;;;;;4918899;29;20024;-85
2022/08/31 07:35:16;;;;;;;5.40;1.73;;;;;;;;;;4901982;29;20434;-83
2022/08/31 07:43:12;;;;;;;3.80;1.60;;;;;;;;;;4919308;29;20504;-87
2022/08/31 07:45:39;;;;;;;3.10;1.77;;;;;;;;;;4919146;29;20430;-85
2022/08/31 07:48:05;;;;;;;3.42;1.40;;;;;;;;;;4902300;29;20043;-78
2022/08/31 07:50:31;;;;;;;5.82;1.65;;;;;;;;;;4906736;29;20036;-79
2022/08/31 07:52:59;;;;;;;2.65;1.38;;;;;;;;;;4902324;29;20028;-83
2022/08/31 07:55:26;;;;;;;4.32;1.50;;;;;;;;;;4902902;29;20052;-87
2022/08/31 07:57:53;;;;;;;4.78;1.67;;;;;;;;;;4918484;29;20028;-88
2022/08/31 08:00:28;;;;;;;2.92;1.60;;;;;;;;;;4901784;29;20039;-92
2022/08/31 08:03:05;;;;;;;3.47;1.45;;;;;;;;;;4904401;29;20039;-90
2022/08/31 08:05:35;;;;;;;5.72;1.67;;;;;;;;;;4903853;29;20036;-84
2022/08/31 08:08:04;;;;;;;2.03;1.30;;;;;;;;;;4908177;29;20497;-84
2022/08/31 08:10:32;;;;;;;4.20;1.33;;;;;;;;;;4901725;29;20039;-81
2022/08/31 08:13:02;;;;;;;3.25;1.40;;;;;;;;;;4900347;29;20064;-77
2022/08/31 08:15:32;;;;;;;3.22;1.30;;;;;;;;;;4901223;29;20028;-94
2022/08/31 08:18:02;;;;;;;2.05;1.23;;;;;;;;;;4901940;29;20028;-93
2022/08/31 08:20:28;;;;;;;3.05;1.42;;;;;;;;;;4901455;29;20127;-89
2022/08/31 08:23:00;;;;;;;3.05;1.58;;;;;;;;;;4902096;29;20028;-86
2022/08/31 08:25:26;;;;;;;3.70;1.63;;;;;;;;;;4902077;29;20032;-90
2022/08/31 08:27:56;;;;;;;5.03;1.70;;;;;;;;;;4901874;29;20037;-93
2022/08/31 08:30:23;;;;;;;4.82;1.60;;;;;;;;;;4901516;29;20088;-93
2022/08/31 08:32:49;;;;;;;2.17;1.30;;;;;;;;;;4886388;29;20039;-92
2022/08/31 08:35:15;;;;;;;3.92;1.45;;;;;;;;;;4901851;29;20079;-86
2022/08/31 08:37:42;;;;;;;4.05;1.58;;;;;;;;;;4905138;29;20371;-87
2022/08/31 08:40:12;;;;;;;3.53;1.40;;;;;;;;;;4902401;29;20036;-92
2022/08/31 08:42:40;;;;;;;4.05;1.90;;;;;;;;;;4902016;29;20405;-88
2022/08/31 08:45:09;;;;;;;1.95;1.02;;;;;;;;;;4904902;29;20067;-91
2022/08/31 08:47:37;;;;;;;3.17;1.40;;;;;;;;;;4914023;29;20047;-84
2022/08/31 08:50:06;;;;;;;5.30;1.48;;;;;;;;;;4903081;29;20029;-87
2022/08/31 08:52:40;;;;;;;4.50;1.48;;;;;;;;;;4901737;29;20048;-85
2022/08/31 08:55:11;;;;;;;2.63;1.40;;;;;;;;;;4901382;29;20032;-91
2022/08/31 08:57:42;;;;;;;2.97;1.48;;;;;;;;;;4901719;29;20063;-94
2022/08/31 09:00:14;;;;;;;4.55;1.60;;;;;;;;;;4902500;29;20099;-93
2022/08/31 09:02:44;;;;;;;5.22;1.58;;;;;;;;;;4909371;29;20012;-90
2022/08/31 09:05:13;;;;;;;2.55;1.50;;;;;;;;;;4901440;29;20028;-89
2022/08/31 09:08:13;;;;;;;6.47;1.35;;;;;;;;;;4900821;29;20060;-86
2022/08/31 09:10:42;;;;;;;3.25;1.45;;;;;;;;;;4891319;29;20088;-89
2022/08/31 09:13:11;;;;;;;11.55;2.15;;;;;;;;;;4901420;29;20162;-87
2022/08/31 09:16:06;;;;;;;2.53;1.50;;;;;;;;;;4901714;29;20028;-88
2022/08/31 09:18:51;;;;;;;5.63;1.38;;;;;;;;;;4902432;29;20051;-87
2022/08/31 09:21:24;;;;;;;2.75;1.38;;;;;;;;;;4920217;29;20059;-88
2022/08/31 09:24:02;;;;;;;3.88;1.40;;;;;;;;;;4902580;29;20040;-92
2022/08/31 09:26:34;;;;;;;4.28;1.30;;;;;;;;;;4918490;29;20068;-86
2022/08/31 09:29:07;;;;;;;2.60;1.20;;;;;;;;;;4905942;29;20482;-93
2022/08/31 09:31:40;;;;;;;3.38;1.10;;;;;;;;;;4912125;29;20056;-84
2022/08/31 09:34:08;;;;;;;4.90;1.52;;;;;;;;;;4906053;29;20044;-90
2022/08/31 09:36:37;;;;;;;1.95;1.10;;;;;;;;;;4905254;29;20095;-91
2022/08/31 09:39:14;;;;;;;2.63;1.33;;;;;;;;;;4905782;29;20028;-91
2022/08/31 09:41:56;;;;;;;3.70;1.40;;;;;;;;;;4906202;29;20039;-93
2022/08/31 09:44:40;;;;;;;2.10;1.20;;;;;;;;;;4906064;29;20057;-90
2022/08/31 09:50:20;;;;;;;3.90;1.30;;;;;;;;;;4923576;29;20115;-93
2022/08/31 09:55:38;;;;;;;3.58;1.70;;;;;;;;;;4922744;29;20162;-95
2022/08/31 09:58:10;;;;;;;2.75;1.33;;;;;;;;;;4913025;29;20044;-91
2022/08/31 10:00:50;;;;;;;4.47;1.35;;;;;;;;;;4907487;29;20032;-92
2022/08/31 10:03:19;;;;;;;1.95;1.10;;;;;;;;;;4906609;29;20036;-88
2022/08/31 10:05:46;;;;;;;2.45;1.17;;;;;;;;;;4904066;29;20028;-83
2022/08/31 10:08:27;;;;;;;6.28;1.23;;;;;;;;;;4903731;29;20131;-88
2022/08/31 10:11:00;;;;;;;;;;;;;;;;;;4904728;29;20024;-81
2022/08/31 10:13:33;;;;;;;4.85;1.35;;;;;;;;;;4903394;29;19918;-86
2022/08/31 10:16:13;;;;;;;2.17;1.02;;;;;;;;;;4903826;29;20035;-87
2022/08/31 10:18:58;;;;;;;2.10;1.10;;;;;;;;;;4903974;29;20020;-88
2022/08/31 10:24:37;;;;;;;2.17;1.15;;;;;;;;;;4920964;29;20038;-85
2022/08/31 10:27:06;;;;;;;2.88;1.30;;;;;;;;;;4904296;29;20095;-84
2022/08/31 10:29:38;;;;;;;3.57;1.23;;;;;;;;;;4924131;29;20056;-90
2022/08/31 10:32:09;;;;;;;4.55;1.20;;;;;;;;;;4904917;29;20084;-87
2022/08/31 10:37:30;;;;;;;9.88;1.30;;;;;;;;;;4920309;29;20289;-89
2022/08/31 10:39:58;;;;;;;4.03;1.05;;;;;;;;;;4904348;29;20028;-87
2022/08/31 10:42:28;;;;;;;4.75;1.30;;;;;;;;;;4905014;29;20123;-82
2022/08/31 10:45:03;;;;;;;2.20;1.05;;;;;;;;;;4902897;29;20036;-84
2022/08/31 10:47:31;;;;;;;2.17;1.20;;;;;;;;;;4902741;29;20414;-84
2022/08/31 10:50:01;;;;;;;2.53;1.40;;;;;;;;;;4902709;29;20024;-84
2022/08/31 10:52:31;;;;;;;2.15;1.13;;;;;;;;;;4902813;29;20028;-85
2022/08/31 10:55:06;;;;;;;2.92;1.02;;;;;;;;;;4909794;29;20035;-86
2022/08/31 10:57:49;;;;;;;2.05;0.90;;;;;;;;;;4903161;29;20111;-86
2022/08/31 11:03:18;;;;;;;2.20;1.08;;;;;;;;;;4919569;29;20051;-83
2022/08/31 11:05:50;;;;;;;2.25;1.25;;;;;;;;;;4908403;29;20024;-82
2022/08/31 11:08:20;;;;;;;3.97;1.40;;;;;;;;;;4910254;29;20063;-85
2022/08/31 11:10:51;;;;;;;4.38;1.60;;;;;;;;;;4912408;29;20131;-84
2022/08/31 11:13:37;;;;;;;3.53;1.50;;;;;;;;;;4909700;29;20020;-90
2022/08/31 11:16:09;;;;;;;2.75;1.58;;;;;;;;;;4912172;29;20028;-90
2022/08/31 11:18:41;;;;;;;2.58;1.40;;;;;;;;;;4907885;29;20032;-86
2022/08/31 11:21:07;;;;;;;3.05;1.55;;;;;;;;;;4910377;29;20028;-88
2022/08/31 11:23:43;;;;;;;2.85;1.60;;;;;;;;;;4902593;29;20481;-88
2022/08/31 11:26:31;;;;;;;2.20;1.50;;;;;;;;;;4903273;29;20478;-88
2022/08/31 11:29:01;;;;;;;3.45;1.30;;;;;;;;;;4901694;29;20490;-85
2022/08/31 11:31:29;;;;;;;2.78;1.52;;;;;;;;;;4901592;29;20032;-86
2022/08/31 11:34:06;;;;;;;3.13;1.45;;;;;;;;;;4902230;29;20371;-89
2022/08/31 11:36:50;;;;;;;5.32;1.65;;;;;;;;;;4902347;29;20120;-90
2022/08/31 11:39:39;;;;;;;2.88;1.50;;;;;;;;;;4918862;29;20020;-85
2022/08/31 11:42:11;;;;;;;2.17;1.42;;;;;;;;;;4902613;29;20036;-86
2022/08/31 11:44:40;;;;;;;3.58;1.70;;;;;;;;;;4901677;29;20394;-84
2022/08/31 11:47:08;;;;;;;2.78;1.40;;;;;;;;;;4910047;29;20036;-85
2022/08/31 11:49:36;;;;;;;2.08;1.20;;;;;;;;;;4900565;29;20040;-82
2022/08/31 11:52:07;;;;;;;2.72;1.60;;;;;;;;;;4903267;29;20028;-84
2022/08/31 11:54:41;;;;;;;3.65;1.67;;;;;;;;;;4924019;29;20031;-83
2022/08/31 12:03:01;;;;;;;8.57;1.50;;;;;;;;;;5214138;23;20092;-82
2022/08/31 12:08:53;;;;;;;2.38;1.33;;;;;;;;;;4941665;29;20127;-85
2022/08/31 12:11:19;;;;;;;2.42;1.25;;;;;;;;;;4928835;29;20020;-87
2022/08/31 12:14:06;;;;;;;2.70;1.50;;;;;;;;;;4920411;29;20083;-85
2022/08/31 12:16:42;;;;;;;2.55;1.17;;;;;;;;;;4920888;29;20032;-87
2022/08/31 12:25:28;;;;;;;4.28;1.42;;;;;;;;;;4939779;29;20038;-80
2022/08/31 12:28:12;;;;;;;2.88;1.60;;;;;;;;;;4920823;29;20039;-82
2022/08/31 12:30:47;;;;;;;3.13;1.45;;;;;;;;;;4920376;29;20051;-82
2022/08/31 12:33:26;;;;;;;3.13;1.23;;;;;;;;;;4914445;29;20047;-80
2022/08/31 12:35:53;;;;;;;3.25;1.17;;;;;;;;;;4920535;29;20028;-80
2022/08/31 12:38:20;;;;;;;3.47;1.17;;;;;;;;;;4940172;29;20032;-79
2022/08/31 12:40:49;;;;;;;2.63;1.20;;;;;;;;;;4919763;29;20445;-79
2022/08/31 12:43:48;;;;;;;2.22;1.25;;;;;;;;;;4920836;29;20585;-88
2022/08/31 12:46:32;;;;;;;2.88;1.13;;;;;;;;;;4890878;29;20502;-84
2022/08/31 12:49:17;;;;;;;2.45;1.20;;;;;;;;;;4932903;29;20167;-81
2022/08/31 12:51:49;;;;;;;2.72;1.35;;;;;;;;;;4924227;29;20032;-85
2022/08/31 12:54:34;;;;;;;4.05;1.50;;;;;;;;;;4918695;29;20485;-80
2022/08/31 12:57:27;;;;;;;2.90;1.30;;;;;;;;;;4915754;29;20036;-77
2022/08/31 12:59:53;;;;;;;;;;;;;;;;;;4918616;29;20024;-79
2022/08/31 13:02:19;;;;;;;1.90;1.00;;;;;;;;;;4904593;29;19918;-86
2022/08/31 13:04:46;;;;;;;2.72;1.42;;;;;;;;;;4927132;29;20437;-78
2022/08/31 13:07:14;;;;;;;1.92;1.00;;;;;;;;;;4907089;29;20052;-82
2022/08/31 13:09:41;;;;;;;25.30;2.80;;;;;;;;;;4904434;29;20032;-85
2022/08/31 13:12:07;;;;;;;3.60;1.50;;;;;;;;;;4930635;29;20039;-80
2022/08/31 13:14:41;;;;;;;2.97;1.10;;;;;;;;;;4919302;29;20082;-78
2022/08/31 13:17:17;;;;;;;2.00;0.98;;;;;;;;;;4940800;29;20030;-78
2022/08/31 13:19:49;;;;;;;3.15;1.08;;;;;;;;;;4940239;29;20127;-78
2022/08/31 13:22:23;;;;;;;3.15;1.40;;;;;;;;;;4923741;29;20024;-79
2022/08/31 13:24:49;;;;;;;5.00;1.00;;;;;;;;;;4923319;29;20039;-80
2022/08/31 13:27:24;;;;;;;2.22;1.25;;;;;;;;;;4922447;29;20028;-79
2022/08/31 13:29:51;;;;;;;2.30;1.15;;;;;;;;;;4939583;29;20035;-79
2022/08/31 13:32:20;;;;;;;2.88;1.23;;;;;;;;;;4940294;29;20040;-78
2022/08/31 13:34:48;;;;;;;2.35;1.15;;;;;;;;;;4939378;29;20039;-79
2022/08/31 13:37:21;;;;;;;2.03;0.93;;;;;;;;;;4940333;29;20050;-79
2022/08/31 13:39:47;;;;;;;2.88;1.50;;;;;;;;;;4937427;29;20028;-81
2022/08/31 13:42:19;;;;;;;2.28;1.00;;;;;;;;;;4904240;29;20083;-80
2022/08/31 13:44:51;;;;;;;3.85;1.42;;;;;;;;;;4920409;29;20067;-80
2022/08/31 13:47:20;;;;;;;5.13;1.60;;;;;;;;;;4921194;29;20028;-82
2022/08/31 13:49:46;;;;;;;2.72;1.27;;;;;;;;;;4907494;29;20036;-81
2022/08/31 13:52:18;;;;;;;67.45;4.90;;;;;;;;;;4909554;29;20030;-81
2022/08/31 14:00:39;;;;;;;4.32;2.65;;;;;;;;;;4894765;29;20075;-74
2022/08/31 14:03:27;;;;;;;4.25;2.22;;;;;;;;;;4903922;29;20029;-74
2022/08/31 14:05:54;;;;;;;13.07;4.30;;;;;;;;;;4901388;29;20537;-80
2022/08/31 14:08:29;;;;;;;5.45;3.15;;;;;;;;;;4901524;29;20028;-77
2022/08/31 14:10:55;;;;;;;3.65;2.42;;;;;;;;;;4915896;29;20071;-81
2022/08/31 14:13:26;;;;;;;7.00;2.30;;;;;;;;;;4915319;29;20500;-81
2022/08/31 14:15:53;;;;;;;12.48;2.90;;;;;;;;;;4916747;29;20545;-80
2022/08/31 14:18:21;;;;;;;4.82;2.70;;;;;;;;;;4915976;29;20390;-78
2022/08/31 14:21:05;;;;;;;4.95;2.40;;;;;;;;;;4902061;29;20020;-75
2022/08/31 14:23:42;;;;;;;18.25;8.18;;;;;;;;;;4916403;29;20037;-77
2022/08/31 14:26:14;;;;;;;8.80;2.58;;;;;;;;;;4915081;29;20115;-75
2022/08/31 14:28:41;;;;;;;7.03;2.60;;;;;;;;;;4900476;29;20430;-79
2022/08/31 14:31:26;;;;;;;4.05;2.40;;;;;;;;;;4915220;29;20088;-80
2022/08/31 14:33:54;;;;;;;4.07;2.63;;;;;;;;;;4902002;29;20059;-81
2022/08/31 14:36:24;;;;;;;5.43;2.28;;;;;;;;;;4915601;29;20486;-80
2022/08/31 14:38:53;;;;;;;5.43;2.35;;;;;;;;;;4915904;29;20024;-81
2022/08/31 14:41:23;;;;;;;5.93;2.38;;;;;;;;;;4916223;29;20106;-81
2022/08/31 14:43:49;;;;;;;4.72;2.22;;;;;;;;;;4916550;29;20050;-77
2022/08/31 14:46:17;;;;;;;5.90;3.30;;;;;;;;;;4917654;29;20478;-76
2022/08/31 14:48:43;;;;;;;5.15;2.67;;;;;;;;;;4914904;29;20044;-81
2022/08/31 14:51:12;;;;;;;3.08;1.85;;;;;;;;;;4915446;29;20478;-79
2022/08/31 14:53:38;;;;;;;4.22;2.70;;;;;;;;;;4915344;29;20037;-80
2022/08/31 14:56:25;;;;;;;4.95;2.63;;;;;;;;;;4900814;29;20057;-81
2022/08/31 14:58:53;;;;;;;8.95;5.15;;;;;;;;;;4914730;29;20052;-81
2022/08/31 15:01:19;;;;;;;4.13;2.33;;;;;;;;;;4900487;29;20032;-81
2022/08/31 15:03:45;;;;;;;4.45;2.50;;;;;;;;;;4916305;29;20032;-83
2022/08/31 15:06:12;;;;;;;6.43;2.55;;;;;;;;;;4901426;29;20388;-81
2022/08/31 15:08:39;;;;;;;6.13;3.00;;;;;;;;;;4900557;29;20470;-82
2022/08/31 15:11:06;;;;;;;4.70;2.28;;;;;;;;;;4915263;29;20380;-83
2022/08/31 15:13:38;;;;;;;3.97;1.73;;;;;;;;;;4900632;29;20037;-82
2022/08/31 15:16:04;;;;;;;4.20;2.47;;;;;;;;;;4915253;29;20037;-81
2022/08/31 15:18:32;;;;;;;3.38;2.08;;;;;;;;;;4901872;29;20024;-81
2022/08/31 15:21:03;;;;;;;18.63;2.50;;;;;;;;;;4915095;29;20381;-81
2022/08/31 15:23:30;;;;;;;6.28;2.05;;;;;;;;;;4915203;29;20080;-81
2022/08/31 15:26:05;;;;;;;9.02;2.60;;;;;;;;;;4918068;29;20033;-80
2022/08/31 15:28:36;;;;;;;23.08;3.70;;;;;;;;;;4917072;29;20029;-83
2022/08/31 15:31:10;;;;;;;15.75;2.70;;;;;;;;;;4914206;29;20083;-81
2022/08/31 15:33:38;;;;;;;11.23;2.30;;;;;;;;;;4914850;29;20037;-82
2022/08/31 15:36:08;;;;;;;13.07;3.10;;;;;;;;;;4900335;29;20084;-82
2022/08/31 15:38:36;;;;;;;13.82;5.47;;;;;;;;;;4914589;29;20489;-81
2022/08/31 15:41:03;;;;;;;5.43;3.00;;;;;;;;;;4914745;29;20084;-79